Time;durP1;ratioP1;P1;durP2;ratioP2;P2;SDS_P1;SDS_P2;PMS_P1;PMS_P2;Temp;Humidity;BMP_temperature;BMP_pressure;BME280_temperature;BME280_humidity;BME280_pressure;Samples;Min_cycle;Max_cycle;Signal;HPM_P1;HPM_P2
2022/01/01 00:02:19;;;;;;;38.33;24.67;;;11.50;99.90;;;;;;5115213;28;20422;-84
2022/01/01 00:04:44;;;;;;;32.23;21.10;;;11.50;99.90;;;;;;5114962;28;20821;-85
2022/01/01 00:07:10;;;;;;;27.70;16.93;;;11.50;99.90;;;;;;5115021;28;20454;-85
2022/01/01 00:09:36;;;;;;;25.30;14.47;;;11.50;99.90;;;;;;5115058;28;20169;-88
2022/01/01 00:12:02;;;;;;;24.00;13.07;;;11.40;99.90;;;;;;5114969;28;20528;-87
2022/01/01 00:14:29;;;;;;;29.90;14.70;;;11.50;99.90;;;;;;5114435;28;20261;-88
2022/01/01 00:16:54;;;;;;;20.60;14.30;;;11.40;99.90;;;;;;5114778;28;20407;-85
2022/01/01 00:19:20;;;;;;;21.70;12.30;;;11.40;99.90;;;;;;5096467;28;20965;-88
2022/01/01 00:21:46;;;;;;;22.77;12.67;;;11.40;99.90;;;;;;5096528;28;20176;-87
2022/01/01 00:24:11;;;;;;;22.60;11.17;;;11.50;99.90;;;;;;5096485;28;20580;-88
2022/01/01 00:26:37;;;;;;;24.07;11.90;;;11.50;99.90;;;;;;5114852;28;20196;-85
2022/01/01 00:29:03;;;;;;;22.97;12.27;;;11.50;99.90;;;;;;5114341;28;20174;-84
2022/01/01 00:31:29;;;;;;;23.07;15.03;;;11.50;99.90;;;;;;5114682;28;20548;-85
2022/01/01 00:33:55;;;;;;;95.60;62.23;;;11.50;99.90;;;;;;5114591;28;20478;-88
2022/01/01 00:36:21;;;;;;;30.10;16.30;;;11.50;99.90;;;;;;5114247;28;20248;-86
2022/01/01 00:38:47;;;;;;;24.60;14.27;;;11.50;99.90;;;;;;5114395;28;20221;-88
2022/01/01 00:41:12;;;;;;;19.43;11.17;;;11.40;99.90;;;;;;5096229;28;20204;-88
2022/01/01 00:43:38;;;;;;;19.00;9.57;;;11.40;99.90;;;;;;5114096;28;20184;-88
2022/01/01 00:46:05;;;;;;;19.87;8.43;;;11.50;99.90;;;;;;5114390;28;20228;-88
2022/01/01 00:48:31;;;;;;;11.90;8.10;;;11.40;99.90;;;;;;5114284;28;20441;-88
2022/01/01 00:50:57;;;;;;;19.90;8.07;;;11.40;99.90;;;;;;5114356;28;20229;-88
2022/01/01 00:53:23;;;;;;;19.03;8.40;;;11.40;99.90;;;;;;5096046;28;20217;-88
2022/01/01 00:55:48;;;;;;;20.53;8.33;;;11.40;99.90;;;;;;5114359;28;20816;-85
2022/01/01 00:58:14;;;;;;;16.80;7.20;;;11.40;99.90;;;;;;5113791;28;20212;-87
2022/01/01 01:00:39;;;;;;;11.90;6.00;;;11.40;99.90;;;;;;5113766;28;20573;-88
2022/01/01 01:03:10;;;;;;;16.60;6.33;;;11.40;99.90;;;;;;5113863;28;20219;-88
2022/01/01 01:05:38;;;;;;;15.60;6.37;;;11.40;99.90;;;;;;5095785;28;20516;-88
2022/01/01 01:08:04;;;;;;;15.87;7.77;;;11.50;99.90;;;;;;5114165;28;20778;-88
2022/01/01 01:10:30;;;;;;;12.33;6.37;;;11.40;99.90;;;;;;5095890;28;20420;-88
2022/01/01 01:12:56;;;;;;;13.30;6.97;;;11.50;99.90;;;;;;5113512;28;21062;-89
2022/01/01 01:15:21;;;;;;;16.30;6.00;;;11.40;99.90;;;;;;5113991;28;20184;-88
2022/01/01 01:17:48;;;;;;;18.17;9.43;;;11.40;99.90;;;;;;5114002;28;20536;-88
2022/01/01 01:20:15;;;;;;;18.77;5.90;;;11.40;99.90;;;;;;5114054;28;20175;-87
2022/01/01 01:22:41;;;;;;;22.13;8.17;;;11.40;99.90;;;;;;5113967;28;20415;-89
2022/01/01 01:25:07;;;;;;;14.27;5.93;;;11.50;99.90;;;;;;5113796;28;20399;-88
2022/01/01 01:27:35;;;;;;;12.77;6.23;;;11.40;99.90;;;;;;5113487;28;20468;-87
2022/01/01 01:30:02;;;;;;;11.67;6.33;;;11.40;99.90;;;;;;5113870;28;20417;-85
2022/01/01 01:32:27;;;;;;;15.00;7.20;;;11.50;99.90;;;;;;5113671;28;20439;-88
2022/01/01 01:34:53;;;;;;;16.40;7.60;;;11.50;99.90;;;;;;5095641;28;20458;-88
2022/01/01 01:37:18;;;;;;;12.23;7.00;;;11.50;99.90;;;;;;5113458;28;20215;-84
2022/01/01 01:39:44;;;;;;;11.47;5.67;;;11.50;99.90;;;;;;5113786;28;20172;-88
2022/01/01 01:42:10;;;;;;;18.10;7.23;;;11.50;99.90;;;;;;5113759;28;20645;-86
2022/01/01 01:44:42;;;;;;;23.53;9.03;;;11.50;99.90;;;;;;5113261;28;20633;-89
2022/01/01 01:47:14;;;;;;;12.83;6.00;;;11.50;99.90;;;;;;5095395;28;20173;-88
2022/01/01 01:49:41;;;;;;;11.83;6.00;;;11.50;99.90;;;;;;5113711;28;20502;-89
2022/01/01 01:52:07;;;;;;;10.97;5.27;;;11.50;99.90;;;;;;5113631;28;20480;-83
2022/01/01 01:54:33;;;;;;;16.50;6.17;;;11.40;99.90;;;;;;5113495;28;20561;-88
2022/01/01 01:56:59;;;;;;;14.97;5.47;;;11.50;99.90;;;;;;5095296;28;20414;-88
2022/01/01 01:59:25;;;;;;;16.27;6.83;;;11.50;99.90;;;;;;5095028;28;20422;-88
2022/01/01 02:01:52;;;;;;;15.23;6.70;;;11.40;99.90;;;;;;5095238;28;20446;-88
2022/01/01 02:04:17;;;;;;;11.30;6.63;;;11.40;99.90;;;;;;5113459;28;20258;-88
2022/01/01 02:06:44;;;;;;;17.97;9.67;;;11.50;99.90;;;;;;5113369;28;20410;-87
2022/01/01 02:09:11;;;;;;;14.90;7.90;;;11.50;99.90;;;;;;5113377;28;20250;-84
2022/01/01 02:11:38;;;;;;;14.03;5.83;;;11.50;99.90;;;;;;5096806;28;20419;-84
2022/01/01 02:14:13;;;;;;;17.63;7.10;;;11.50;99.90;;;;;;5117011;28;20488;-89
2022/01/01 02:19:24;;;;;;;15.90;6.30;;;11.50;99.90;;;;;;5117476;28;20418;-88
2022/01/01 02:21:54;;;;;;;15.63;7.20;;;11.50;99.90;;;;;;5117214;28;20408;-86
2022/01/01 02:24:21;;;;;;;16.10;6.70;;;11.50;99.90;;;;;;5117160;28;20468;-87
2022/01/01 02:26:47;;;;;;;16.20;6.63;;;11.40;99.90;;;;;;5099046;28;20941;-87
2022/01/01 02:29:13;;;;;;;11.17;6.93;;;11.50;99.90;;;;;;5116788;28;20418;-88
2022/01/01 02:31:39;;;;;;;16.07;7.80;;;11.50;99.90;;;;;;5117135;28;20499;-85
2022/01/01 02:34:06;;;;;;;21.13;7.07;;;11.50;99.90;;;;;;5116974;28;20557;-87
2022/01/01 02:36:40;;;;;;;16.77;6.97;;;11.50;99.90;;;;;;5116960;28;20169;-88
2022/01/01 02:39:21;;;;;;;19.47;7.83;;;11.50;99.90;;;;;;5116822;28;20477;-89
2022/01/01 02:41:50;;;;;;;15.47;6.97;;;11.50;99.90;;;;;;5116808;28;20415;-87
2022/01/01 02:44:16;;;;;;;11.60;6.50;;;11.50;99.90;;;;;;5116366;28;20405;-88
2022/01/01 02:46:42;;;;;;;18.53;8.87;;;11.50;99.90;;;;;;5116785;28;20902;-89
2022/01/01 02:49:07;;;;;;;16.17;6.60;;;11.50;99.90;;;;;;5116832;28;20164;-88
2022/01/01 02:51:33;;;;;;;16.87;8.20;;;11.50;99.90;;;;;;5116634;28;20222;-88
2022/01/01 02:53:59;;;;;;;21.00;7.27;;;11.50;99.90;;;;;;5116650;28;20281;-88
2022/01/01 02:56:25;;;;;;;16.97;8.93;;;11.50;99.90;;;;;;5098451;28;20407;-88
2022/01/01 02:58:51;;;;;;;11.10;6.40;;;11.50;99.90;;;;;;5116217;28;20172;-88
2022/01/01 03:01:18;;;;;;;16.33;7.23;;;11.50;99.90;;;;;;5116499;28;20464;-88
2022/01/01 03:03:44;;;;;;;22.17;8.10;;;11.50;99.90;;;;;;5116715;28;20415;-88
2022/01/01 03:06:10;;;;;;;19.00;7.40;;;11.50;99.90;;;;;;5116581;28;20459;-88
2022/01/01 03:08:36;;;;;;;20.67;9.33;;;11.50;99.90;;;;;;5098376;28;20423;-86
2022/01/01 03:11:02;;;;;;;22.43;9.53;;;11.50;99.90;;;;;;5116325;28;20812;-87
2022/01/01 03:13:29;;;;;;;16.30;7.13;;;11.50;99.90;;;;;;5115961;28;20524;-89
2022/01/01 03:15:55;;;;;;;21.80;7.30;;;11.50;99.90;;;;;;5098093;28;20426;-87
2022/01/01 03:18:20;;;;;;;16.40;8.30;;;11.50;99.90;;;;;;5116182;28;20422;-88
2022/01/01 03:20:46;;;;;;;20.80;8.53;;;11.50;99.90;;;;;;5116297;28;20197;-86
2022/01/01 03:23:11;;;;;;;21.87;8.90;;;11.50;99.90;;;;;;5115784;28;20178;-88
2022/01/01 03:25:37;;;;;;;14.23;7.80;;;11.50;99.90;;;;;;5116206;28;20168;-88
2022/01/01 03:28:03;;;;;;;16.57;7.93;;;11.50;99.90;;;;;;5115752;28;20164;-88
2022/01/01 03:30:29;;;;;;;12.60;8.87;;;11.50;99.90;;;;;;5116053;28;20173;-88
2022/01/01 03:32:54;;;;;;;15.17;8.67;;;11.50;99.90;;;;;;5116044;28;20446;-86
2022/01/01 03:35:20;;;;;;;17.33;8.17;;;11.50;99.90;;;;;;5115966;28;20266;-88
2022/01/01 03:37:46;;;;;;;12.80;6.17;;;11.40;99.90;;;;;;5115651;28;20223;-87
2022/01/01 03:40:11;;;;;;;18.87;7.97;;;11.40;99.90;;;;;;5115861;28;20176;-88
2022/01/01 03:42:37;;;;;;;18.07;8.27;;;11.40;99.90;;;;;;5116666;28;20174;-88
2022/01/01 03:45:04;;;;;;;16.23;7.67;;;11.50;99.90;;;;;;5116101;28;20419;-88
2022/01/01 03:47:30;;;;;;;22.17;9.33;;;11.50;99.90;;;;;;5116113;28;20169;-86
2022/01/01 03:49:56;;;;;;;16.40;8.43;;;11.50;99.90;;;;;;5115955;28;20418;-88
2022/01/01 03:52:22;;;;;;;16.33;8.40;;;11.50;99.90;;;;;;5115858;28;20464;-87
2022/01/01 03:54:47;;;;;;;18.33;9.27;;;11.50;99.90;;;;;;5115733;28;20231;-88
2022/01/01 03:57:13;;;;;;;25.00;9.67;;;11.50;99.90;;;;;;5115221;28;20415;-88
2022/01/01 03:59:38;;;;;;;22.63;9.20;;;11.50;99.90;;;;;;5115614;28;20205;-86
2022/01/01 04:02:04;;;;;;;18.40;8.83;;;11.50;99.90;;;;;;5115405;28;20592;-89
2022/01/01 04:04:30;;;;;;;15.67;8.63;;;11.50;99.90;;;;;;5115406;28;20161;-88
2022/01/01 04:06:56;;;;;;;15.97;9.03;;;11.50;99.90;;;;;;5115342;28;20183;-87
2022/01/01 04:09:21;;;;;;;17.90;7.90;;;11.50;99.90;;;;;;5115436;28;20528;-86
2022/01/01 04:11:47;;;;;;;23.43;9.37;;;11.50;99.90;;;;;;5115323;28;20629;-88
2022/01/01 04:14:15;;;;;;;15.63;9.13;;;11.50;99.90;;;;;;5114709;28;20238;-88
2022/01/01 04:16:41;;;;;;;24.73;10.90;;;11.50;99.90;;;;;;5115332;28;20180;-87
2022/01/01 04:19:08;;;;;;;20.20;9.07;;;11.50;99.90;;;;;;5115186;28;20426;-87
2022/01/01 04:21:34;;;;;;;14.10;8.27;;;11.50;99.90;;;;;;5115210;28;20403;-88
2022/01/01 04:24:00;;;;;;;23.43;8.97;;;11.50;99.90;;;;;;5115109;28;20419;-88
2022/01/01 04:26:25;;;;;;;20.30;8.93;;;11.50;99.90;;;;;;5114957;28;20419;-88
2022/01/01 04:28:52;;;;;;;20.53;8.87;;;11.50;99.90;;;;;;5114709;28;20173;-88
2022/01/01 04:31:17;;;;;;;21.93;9.67;;;11.50;99.90;;;;;;5115118;28;20223;-86
2022/01/01 04:33:43;;;;;;;16.70;9.23;;;11.50;99.90;;;;;;5095918;28;20860;-88
2022/01/01 04:36:10;;;;;;;22.80;9.53;;;11.50;99.90;;;;;;5114864;28;20220;-88
2022/01/01 04:38:37;;;;;;;22.57;9.87;;;11.50;99.90;;;;;;5096510;28;20474;-87
2022/01/01 04:41:09;;;;;;;30.47;11.57;;;11.50;99.90;;;;;;5114990;28;20402;-88
2022/01/01 04:43:35;;;;;;;21.10;10.73;;;11.50;99.90;;;;;;5114639;28;20410;-90
2022/01/01 04:46:00;;;;;;;24.07;10.30;;;11.50;99.90;;;;;;5114697;28;20516;-88
2022/01/01 04:48:26;;;;;;;25.83;10.20;;;11.50;99.90;;;;;;5114610;28;21169;-87
2022/01/01 04:50:52;;;;;;;21.20;10.17;;;11.50;99.90;;;;;;5096357;28;20513;-86
2022/01/01 04:53:18;;;;;;;20.67;11.20;;;11.50;99.90;;;;;;5114491;28;20336;-87
2022/01/01 04:55:48;;;;;;;22.40;11.07;;;11.50;99.90;;;;;;5114514;28;20161;-88
2022/01/01 04:58:14;;;;;;;20.50;10.50;;;11.50;99.90;;;;;;5114105;28;20414;-88
2022/01/01 05:00:40;;;;;;;32.37;11.10;;;11.50;99.90;;;;;;5114294;28;20408;-88
2022/01/01 05:03:06;;;;;;;28.10;12.00;;;11.50;99.90;;;;;;5114208;28;20832;-88
2022/01/01 05:05:31;;;;;;;21.53;10.47;;;11.50;99.90;;;;;;5114460;28;20290;-88
2022/01/01 05:07:57;;;;;;;20.90;11.83;;;11.60;99.90;;;;;;5114215;28;20208;-89
2022/01/01 05:10:26;;;;;;;22.60;11.60;;;11.50;99.90;;;;;;5114318;28;20179;-88
2022/01/01 05:12:52;;;;;;;27.77;10.57;;;11.50;99.90;;;;;;5095447;28;20201;-88
2022/01/01 05:15:18;;;;;;;23.33;10.50;;;11.50;99.90;;;;;;5114203;28;20415;-88
2022/01/01 05:17:44;;;;;;;19.40;11.67;;;11.50;99.90;;;;;;5114079;28;20406;-88
2022/01/01 05:20:09;;;;;;;26.93;12.43;;;11.50;99.90;;;;;;5114309;28;20742;-88
2022/01/01 05:22:35;;;;;;;26.07;11.00;;;11.50;99.90;;;;;;5114130;28;20196;-89
2022/01/01 05:25:01;;;;;;;21.20;11.90;;;11.50;99.90;;;;;;5114092;28;20407;-86
2022/01/01 05:27:27;;;;;;;24.50;11.07;;;11.50;99.90;;;;;;5113032;28;20185;-88
2022/01/01 05:29:53;;;;;;;25.87;10.93;;;11.50;99.90;;;;;;5114196;28;20215;-89
2022/01/01 05:32:19;;;;;;;25.10;10.43;;;11.50;99.90;;;;;;5095922;28;20469;-90
2022/01/01 05:34:45;;;;;;;22.03;11.83;;;11.50;99.90;;;;;;5095668;28;20846;-87
2022/01/01 05:37:10;;;;;;;31.80;13.60;;;11.50;99.90;;;;;;5113670;28;20174;-88
2022/01/01 05:39:36;;;;;;;25.13;12.17;;;11.50;99.90;;;;;;5113827;28;20204;-88
2022/01/01 05:42:02;;;;;;;25.17;12.40;;;11.50;99.90;;;;;;5113558;28;20294;-88
2022/01/01 05:44:27;;;;;;;23.20;10.17;;;11.50;99.90;;;;;;5113825;28;20165;-88
2022/01/01 05:46:53;;;;;;;22.13;11.73;;;11.50;99.90;;;;;;5120510;28;20168;-87
2022/01/01 05:49:20;;;;;;;23.30;12.30;;;11.50;99.90;;;;;;5102382;28;20578;-89
2022/01/01 05:51:46;;;;;;;23.30;10.90;;;11.50;99.90;;;;;;5120912;28;20400;-87
2022/01/01 05:54:11;;;;;;;23.40;11.53;;;11.50;99.90;;;;;;5120598;28;20532;-89
2022/01/01 05:56:37;;;;;;;26.17;12.20;;;11.50;99.90;;;;;;5120312;28;20595;-89
2022/01/01 05:59:03;;;;;;;25.27;11.60;;;11.50;99.90;;;;;;5102399;28;20173;-88
2022/01/01 06:01:28;;;;;;;26.73;12.37;;;11.50;99.90;;;;;;5120757;28;20227;-89
2022/01/01 06:03:54;;;;;;;25.90;13.57;;;11.50;99.90;;;;;;5120455;28;20161;-88
2022/01/01 06:06:19;;;;;;;20.63;11.50;;;11.50;99.90;;;;;;5120657;28;20513;-88
2022/01/01 06:08:45;;;;;;;29.47;11.87;;;11.50;99.90;;;;;;5120678;28;20168;-88
2022/01/01 06:11:10;;;;;;;20.73;11.00;;;11.50;99.90;;;;;;5102377;28;20186;-89
2022/01/01 06:13:36;;;;;;;25.77;11.57;;;11.50;99.90;;;;;;5123009;28;20677;-87
2022/01/01 06:16:02;;;;;;;23.30;11.87;;;11.50;99.90;;;;;;5122941;28;20179;-86
2022/01/01 06:18:28;;;;;;;29.73;12.03;;;11.50;99.90;;;;;;5127434;28;20225;-88
2022/01/01 06:20:53;;;;;;;23.33;11.67;;;11.50;99.90;;;;;;5113391;28;20426;-87
2022/01/01 06:23:19;;;;;;;26.40;13.50;;;11.50;99.90;;;;;;5127723;28;20165;-86
2022/01/01 06:25:45;;;;;;;27.13;11.97;;;11.50;99.90;;;;;;5131104;28;20171;-88
2022/01/01 06:28:11;;;;;;;28.27;12.83;;;11.50;99.90;;;;;;5116565;28;20169;-87
2022/01/01 06:30:37;;;;;;;27.20;12.70;;;11.50;99.90;;;;;;5121656;28;20164;-88
2022/01/01 06:33:14;;;;;;;25.70;12.30;;;11.50;99.90;;;;;;5120462;28;20455;-87
2022/01/01 06:35:42;;;;;;;21.90;11.67;;;11.50;99.90;;;;;;5120281;28;20699;-88
2022/01/01 06:38:08;;;;;;;24.93;11.70;;;11.50;99.90;;;;;;5120110;28;20983;-88
2022/01/01 06:40:35;;;;;;;27.23;11.77;;;11.50;99.90;;;;;;5120167;28;20417;-88
2022/01/01 06:43:01;;;;;;;23.53;11.80;;;11.50;99.90;;;;;;5119785;28;20413;-88
2022/01/01 06:45:26;;;;;;;27.90;11.50;;;11.50;99.90;;;;;;5120286;28;20411;-89
2022/01/01 06:47:52;;;;;;;22.53;11.33;;;11.50;99.90;;;;;;5120144;27;20697;-86
2022/01/01 06:50:17;;;;;;;22.47;10.87;;;11.50;99.90;;;;;;5120063;28;20176;-86
2022/01/01 06:52:45;;;;;;;20.67;11.20;;;11.50;99.90;;;;;;5120196;28;20177;-87
2022/01/01 06:55:12;;;;;;;21.80;11.67;;;11.50;99.90;;;;;;5120031;28;20652;-89
2022/01/01 06:57:41;;;;;;;21.70;10.93;;;11.50;99.90;;;;;;5098394;28;20425;-88
2022/01/01 07:00:09;;;;;;;26.90;11.60;;;11.50;99.90;;;;;;5116871;28;20426;-88
2022/01/01 07:02:42;;;;;;;21.23;9.87;;;11.50;99.90;;;;;;5116843;28;20403;-89
2022/01/01 07:05:08;;;;;;;26.03;10.87;;;11.50;99.90;;;;;;5116726;28;20803;-88
2022/01/01 07:07:34;;;;;;;22.13;10.60;;;11.50;99.90;;;;;;5116664;28;20497;-87
2022/01/01 07:10:00;;;;;;;24.63;10.10;;;11.50;99.90;;;;;;5116729;28;20408;-89
2022/01/01 07:12:26;;;;;;;25.93;11.90;;;11.50;99.90;;;;;;5116122;28;20651;-89
2022/01/01 07:14:51;;;;;;;22.53;9.53;;;11.40;99.90;;;;;;5116360;28;20553;-88
2022/01/01 07:17:17;;;;;;;26.67;11.57;;;11.50;99.90;;;;;;5116540;28;20197;-87
2022/01/01 07:19:42;;;;;;;19.90;12.03;;;11.50;99.90;;;;;;5098275;28;20178;-88
2022/01/01 07:22:08;;;;;;;27.07;12.17;;;11.40;99.90;;;;;;5116358;28;20202;-88
2022/01/01 07:24:33;;;;;;;22.60;11.33;;;11.40;99.90;;;;;;5116290;28;20165;-86
2022/01/01 07:26:59;;;;;;;15.27;8.97;;;11.40;99.90;;;;;;5116056;28;20230;-88
2022/01/01 07:29:25;;;;;;;24.50;11.80;;;11.40;99.90;;;;;;5097966;28;20164;-87
2022/01/01 07:31:53;;;;;;;24.43;10.53;;;11.40;99.90;;;;;;5116148;28;20161;-87
2022/01/01 07:34:20;;;;;;;19.10;8.50;;;11.40;99.90;;;;;;5116156;28;20665;-86
2022/01/01 07:36:46;;;;;;;32.83;11.80;;;11.40;99.90;;;;;;5116080;28;20402;-88
2022/01/01 07:39:11;;;;;;;22.07;10.73;;;11.40;99.90;;;;;;5115917;28;20987;-88
2022/01/01 07:41:37;;;;;;;26.00;10.60;;;11.40;99.90;;;;;;5115724;28;20402;-88
2022/01/01 07:44:03;;;;;;;19.97;11.10;;;11.40;99.90;;;;;;5116024;28;20173;-86
2022/01/01 07:46:29;;;;;;;24.00;11.17;;;11.40;99.90;;;;;;5097590;28;20517;-88
2022/01/01 07:48:54;;;;;;;25.37;11.70;;;11.40;99.90;;;;;;5115876;28;20418;-88
2022/01/01 07:51:20;;;;;;;29.20;11.50;;;11.40;99.90;;;;;;5115750;28;20193;-88
2022/01/01 07:53:45;;;;;;;28.97;11.13;;;11.40;99.90;;;;;;5115680;28;20197;-87
2022/01/01 07:56:11;;;;;;;22.13;9.90;;;11.40;99.90;;;;;;5097328;28;20174;-88
2022/01/01 07:58:36;;;;;;;23.47;10.80;;;11.40;99.90;;;;;;5115713;28;20165;-89
2022/01/01 08:01:02;;;;;;;22.70;11.80;;;11.40;99.90;;;;;;5115779;28;20168;-88
2022/01/01 08:03:28;;;;;;;27.37;13.33;;;11.40;99.90;;;;;;5115561;28;20180;-87
2022/01/01 08:05:54;;;;;;;29.00;10.70;;;11.40;99.90;;;;;;5115693;28;20652;-89
2022/01/01 08:08:21;;;;;;;26.53;11.37;;;11.40;99.90;;;;;;5096530;28;20184;-85
2022/01/01 08:10:47;;;;;;;28.97;13.53;;;11.40;99.90;;;;;;5097143;28;20418;-86
2022/01/01 08:13:21;;;;;;;21.20;10.10;;;11.40;99.90;;;;;;5115223;28;20492;-89
2022/01/01 08:15:46;;;;;;;31.73;11.53;;;11.40;99.90;;;;;;5116415;28;20248;-89
2022/01/01 08:18:12;;;;;;;25.60;12.47;;;11.40;99.90;;;;;;5097446;28;20426;-88
2022/01/01 08:20:38;;;;;;;28.43;11.93;;;11.50;99.90;;;;;;5115378;28;20572;-87
2022/01/01 08:23:03;;;;;;;23.80;11.53;;;11.50;99.90;;;;;;5115242;28;20215;-89
2022/01/01 08:25:29;;;;;;;23.00;10.80;;;11.50;99.90;;;;;;5115378;28;20180;-87
2022/01/01 08:27:54;;;;;;;28.57;11.93;;;11.40;99.90;;;;;;5114911;28;20684;-88
2022/01/01 08:30:20;;;;;;;26.87;10.30;;;11.50;99.90;;;;;;5114947;28;20644;-88
2022/01/01 08:32:46;;;;;;;29.00;12.67;;;11.50;99.90;;;;;;5114845;28;20619;-88
2022/01/01 08:35:12;;;;;;;35.97;11.83;;;11.50;99.90;;;;;;5115015;28;20188;-87
2022/01/01 08:37:37;;;;;;;23.10;11.57;;;11.50;99.90;;;;;;5114731;28;20236;-88
2022/01/01 08:40:04;;;;;;;24.30;11.63;;;11.50;99.90;;;;;;5115044;28;20420;-88
2022/01/01 08:42:30;;;;;;;25.60;14.17;;;11.50;99.90;;;;;;5114504;28;20178;-87
2022/01/01 08:44:55;;;;;;;28.23;14.47;;;11.60;99.90;;;;;;5114795;28;20755;-87
2022/01/01 08:47:24;;;;;;;33.27;14.90;;;11.60;99.90;;;;;;5114777;28;20201;-90
2022/01/01 08:49:52;;;;;;;30.87;15.50;;;11.60;99.90;;;;;;5114713;28;20189;-89
2022/01/01 08:52:17;;;;;;;29.23;13.03;;;11.60;99.90;;;;;;5114587;28;20627;-87
2022/01/01 08:54:43;;;;;;;25.43;14.73;;;11.60;99.90;;;;;;5096199;28;20467;-89
2022/01/01 08:57:09;;;;;;;33.07;15.73;;;11.60;99.90;;;;;;5114172;28;20164;-88
2022/01/01 08:59:35;;;;;;;30.90;15.20;;;11.60;99.90;;;;;;5114486;28;20174;-88
2022/01/01 09:02:00;;;;;;;26.83;13.20;;;11.60;99.90;;;;;;5114595;28;20763;-86
2022/01/01 09:04:26;;;;;;;34.80;15.43;;;11.70;99.90;;;;;;5114468;28;20695;-88
2022/01/01 09:06:51;;;;;;;34.53;14.13;;;11.60;99.90;;;;;;5114296;28;20226;-88
2022/01/01 09:09:17;;;;;;;33.70;14.10;;;11.60;99.90;;;;;;5114149;28;20169;-88
2022/01/01 09:11:43;;;;;;;29.83;14.40;;;11.60;99.90;;;;;;5113860;28;20680;-87
2022/01/01 09:14:09;;;;;;;30.20;15.63;;;11.60;99.90;;;;;;5113967;28;20213;-87
2022/01/01 09:16:35;;;;;;;29.27;15.00;;;11.60;99.90;;;;;;5096270;28;20167;-88
2022/01/01 09:19:00;;;;;;;27.93;14.97;;;11.60;99.90;;;;;;5113979;28;20408;-88
2022/01/01 09:21:27;;;;;;;26.10;14.07;;;11.70;99.90;;;;;;5113696;28;20506;-87
2022/01/01 09:23:53;;;;;;;34.50;16.00;;;11.70;99.90;;;;;;5113998;28;20533;-87
2022/01/01 09:26:20;;;;;;;38.93;17.67;;;11.70;99.90;;;;;;5113612;28;20810;-86
2022/01/01 09:28:46;;;;;;;43.50;17.43;;;11.80;99.90;;;;;;5114042;28;20847;-88
2022/01/01 09:31:12;;;;;;;42.10;17.63;;;11.80;99.90;;;;;;5113884;28;20491;-87
2022/01/01 09:33:37;;;;;;;41.40;19.30;;;11.80;99.90;;;;;;5113894;28;20216;-88
2022/01/01 09:36:05;;;;;;;44.60;18.90;;;11.80;99.90;;;;;;5095759;28;20526;-87
2022/01/01 09:38:32;;;;;;;41.60;19.60;;;11.90;99.90;;;;;;5113735;28;20240;-87
2022/01/01 09:40:58;;;;;;;32.30;18.20;;;11.90;99.90;;;;;;5113593;28;20413;-88
2022/01/01 09:43:26;;;;;;;36.70;17.93;;;11.90;99.90;;;;;;5113859;28;20416;-88
2022/01/01 09:45:53;;;;;;;38.60;19.77;;;11.80;99.90;;;;;;5113799;28;20933;-88
2022/01/01 09:48:21;;;;;;;43.90;22.30;;;11.80;99.90;;;;;;5113776;28;20899;-88
2022/01/01 09:50:49;;;;;;;44.47;21.10;;;11.80;99.90;;;;;;5113784;28;20462;-89
2022/01/01 09:53:15;;;;;;;46.87;22.37;;;11.90;99.90;;;;;;5113589;28;20455;-87
2022/01/01 09:55:42;;;;;;;46.07;23.03;;;11.80;99.90;;;;;;5113700;28;20419;-88
2022/01/01 09:58:07;;;;;;;49.57;23.80;;;11.90;99.90;;;;;;5113224;28;20403;-87
2022/01/01 10:00:33;;;;;;;44.90;23.13;;;11.80;99.90;;;;;;5114171;28;20569;-87
2022/01/01 10:02:58;;;;;;;47.00;24.03;;;11.80;99.90;;;;;;5113945;28;20189;-88
2022/01/01 10:05:24;;;;;;;48.83;24.90;;;11.80;99.90;;;;;;5113782;28;20171;-87
2022/01/01 10:07:50;;;;;;;58.83;29.40;;;11.80;99.90;;;;;;5113548;28;20201;-88
2022/01/01 10:10:22;;;;;;;47.03;28.97;;;11.80;99.90;;;;;;5113530;28;20169;-88
2022/01/01 10:12:48;;;;;;;48.73;25.47;;;11.90;99.90;;;;;;5113109;28;20698;-88
2022/01/01 10:15:15;;;;;;;52.57;28.57;;;11.90;99.90;;;;;;5113487;28;20417;-87
2022/01/01 10:17:41;;;;;;;62.50;30.30;;;11.90;99.90;;;;;;5113440;28;20405;-90
2022/01/01 10:20:08;;;;;;;72.30;32.93;;;11.90;99.90;;;;;;5113605;28;20511;-90
2022/01/01 10:22:35;;;;;;;58.53;31.53;;;11.90;99.90;;;;;;5113801;28;20983;-88
2022/01/01 10:28:00;;;;;;;58.60;31.43;;;12.00;99.90;;;;;;5113442;28;20418;-89
2022/01/01 10:30:29;;;;;;;56.13;30.30;;;11.90;99.90;;;;;;5113955;28;20394;-87
2022/01/01 10:33:14;;;;;;;57.77;29.50;;;11.90;99.90;;;;;;5116181;28;20412;-87
2022/01/01 10:35:47;;;;;;;55.70;31.80;;;11.90;99.90;;;;;;5117723;28;20783;-88
2022/01/01 10:38:16;;;;;;;57.53;33.07;;;11.90;99.90;;;;;;5117401;28;20461;-88
2022/01/01 10:40:43;;;;;;;59.40;33.53;;;11.90;99.90;;;;;;5118176;28;20429;-86
2022/01/01 10:43:10;;;;;;;62.87;34.33;;;11.90;99.90;;;;;;5117663;28;20408;-87
2022/01/01 10:45:37;;;;;;;47.07;28.17;;;11.90;99.90;;;;;;5118040;28;20425;-85
2022/01/01 10:48:15;;;;;;;53.83;30.10;;;12.00;99.90;;;;;;5117339;28;20415;-87
2022/01/01 10:50:42;;;;;;;59.33;29.53;;;12.00;99.90;;;;;;5117070;28;20797;-85
2022/01/01 10:53:16;;;;;;;55.37;31.30;;;12.00;99.90;;;;;;5116856;28;20447;-87
2022/01/01 10:55:43;;;;;;;59.13;32.20;;;12.00;99.90;;;;;;5116471;28;20424;-88
2022/01/01 10:58:09;;;;;;;61.60;34.60;;;12.00;99.90;;;;;;5116934;28;20411;-87
2022/01/01 11:00:41;;;;;;;59.87;34.33;;;12.00;99.90;;;;;;5116942;28;20408;-87
2022/01/01 11:03:15;;;;;;;56.90;31.07;;;12.00;99.90;;;;;;5116716;28;20580;-87
2022/01/01 11:05:41;;;;;;;56.33;32.30;;;12.00;99.90;;;;;;5116691;28;20413;-85
2022/01/01 11:08:08;;;;;;;57.13;30.73;;;12.00;99.90;;;;;;5116744;28;20415;-87
2022/01/01 11:10:35;;;;;;;55.57;31.77;;;11.90;99.90;;;;;;5116453;28;20918;-87
2022/01/01 11:13:02;;;;;;;60.17;31.80;;;12.00;99.90;;;;;;5116076;28;20444;-87
2022/01/01 11:15:29;;;;;;;55.57;27.00;;;12.00;99.90;;;;;;5116373;28;20416;-87
2022/01/01 11:17:57;;;;;;;61.27;32.13;;;12.00;99.90;;;;;;5116124;28;20396;-88
2022/01/01 11:20:25;;;;;;;59.43;30.73;;;12.00;99.90;;;;;;5116228;28;20412;-86
2022/01/01 11:22:51;;;;;;;55.33;30.87;;;12.00;99.90;;;;;;5116104;28;20407;-87
2022/01/01 11:25:18;;;;;;;55.27;27.77;;;12.00;99.90;;;;;;5116136;28;20446;-85
2022/01/01 11:27:45;;;;;;;57.90;29.07;;;12.00;99.90;;;;;;5115596;28;20167;-86
2022/01/01 11:30:13;;;;;;;61.87;27.30;;;12.10;99.90;;;;;;5115869;28;20416;-87
2022/01/01 11:33:02;;;;;;;46.50;27.40;;;12.10;99.90;;;;;;5115802;28;20461;-87
2022/01/01 11:35:32;;;;;;;48.57;27.40;;;12.30;99.90;;;;;;5115821;28;20475;-87
2022/01/01 11:38:09;;;;;;;43.10;25.80;;;12.40;99.90;;;;;;5115613;28;20461;-87
2022/01/01 11:40:47;;;;;;;49.90;26.17;;;12.50;99.90;;;;;;5115410;28;20484;-88
2022/01/01 11:43:51;;;;;;;50.20;26.70;;;12.50;99.90;;;;;;5097173;28;20452;-85
2022/01/01 11:46:20;;;;;;;44.67;25.67;;;12.50;99.90;;;;;;5115611;28;20427;-87
2022/01/01 11:48:49;;;;;;;46.60;28.37;;;12.40;99.90;;;;;;5115570;28;20499;-87
2022/01/01 11:51:19;;;;;;;47.40;24.93;;;12.40;99.90;;;;;;5097413;28;20813;-86
2022/01/01 11:54:03;;;;;;;51.57;25.77;;;12.40;99.90;;;;;;5115400;28;20465;-86
2022/01/01 11:56:49;;;;;;;50.93;25.07;;;12.40;99.90;;;;;;5115048;28;20509;-88
2022/01/01 11:59:28;;;;;;;39.43;23.70;;;12.40;99.90;;;;;;5115355;28;20750;-87
2022/01/01 12:02:04;;;;;;;42.70;24.20;;;12.40;99.90;;;;;;5115294;28;20408;-89
2022/01/01 12:04:44;;;;;;;40.70;20.70;;;12.40;99.90;;;;;;5096979;28;20424;-89
2022/01/01 12:07:18;;;;;;;41.80;19.40;;;12.30;99.90;;;;;;5115261;28;20419;-88
2022/01/01 12:10:03;;;;;;;43.60;22.60;;;12.30;99.90;;;;;;5115158;28;20405;-87
2022/01/01 12:12:41;;;;;;;45.73;24.30;;;12.30;99.90;;;;;;5096419;28;20826;-87
2022/01/01 12:15:26;;;;;;;37.93;20.30;;;12.40;99.90;;;;;;5096763;28;20443;-88
2022/01/01 12:18:01;;;;;;;40.00;21.77;;;12.40;99.90;;;;;;5115106;28;20484;-88
2022/01/01 12:20:34;;;;;;;38.27;20.30;;;12.40;99.90;;;;;;5115126;28;20417;-87
2022/01/01 12:23:04;;;;;;;32.80;21.27;;;12.40;99.90;;;;;;5116091;28;20401;-87
2022/01/01 12:25:31;;;;;;;39.87;22.60;;;12.40;99.90;;;;;;5115265;28;20420;-89
2022/01/01 12:28:08;;;;;;;36.30;22.33;;;12.40;99.90;;;;;;5115498;28;20415;-88
2022/01/01 12:30:51;;;;;;;39.40;20.40;;;12.50;99.90;;;;;;5115483;28;20499;-89
2022/01/01 12:33:22;;;;;;;53.63;22.30;;;12.50;99.90;;;;;;5115568;28;20448;-89
2022/01/01 12:35:50;;;;;;;28.00;20.37;;;12.50;99.90;;;;;;5115034;28;20449;-87
2022/01/01 12:38:25;;;;;;;45.10;23.33;;;12.50;99.90;;;;;;5096442;28;20461;-89